Time;durP1;ratioP1;P1;durP2;ratioP2;P2;SDS_P1;SDS_P2;PMS_P1;PMS_P2;Temp;Humidity;BMP_temperature;BMP_pressure;BME280_temperature;BME280_humidity;BME280_pressure;Samples;Min_cycle;Max_cycle;Signal;HPM_P1;HPM_P2
2021/12/12 00:00:53;;;;;;;7.53;6.67;;;;;;;3.09;93.96;97468.75;5025379;28;20223;-69
2021/12/12 00:03:34;;;;;;;7.53;6.83;;;;;;;3.10;93.88;97468.69;5022176;28;20218;-68
2021/12/12 00:06:04;;;;;;;7.80;7.03;;;;;;;3.17;93.25;97474.44;5028667;28;20211;-68
2021/12/12 00:08:30;;;;;;;7.07;6.43;;;;;;;3.08;93.17;97464.47;5038224;28;20218;-68
2021/12/12 00:11:01;;;;;;;7.47;6.80;;;;;;;3.12;92.58;97471.25;5033083;28;20242;-67
2021/12/12 00:13:31;;;;;;;7.20;6.60;;;;;;;3.05;93.07;97464.63;5027089;28;20207;-67
2021/12/12 00:15:58;;;;;;;7.23;6.53;;;;;;;3.10;93.33;97468.69;5037901;28;20219;-68
2021/12/12 00:18:26;;;;;;;8.03;6.63;;;;;;;3.04;93.40;97473.38;5048341;28;20623;-67
2021/12/12 00:20:53;;;;;;;7.37;6.60;;;;;;;3.04;92.30;97473.38;5045841;28;20211;-67
2021/12/12 00:23:19;;;;;;;7.57;6.47;;;;;;;3.07;92.64;97471.47;5040934;28;20263;-68
2021/12/12 00:25:49;;;;;;;6.50;6.00;;;;;;;3.07;93.06;97470.63;5031552;28;20638;-69
2021/12/12 00:28:19;;;;;;;6.53;5.97;;;;;;;3.06;93.36;97474.13;5019919;28;20207;-69
2021/12/12 00:30:46;;;;;;;6.27;5.67;;;;;;;3.06;93.71;97479.38;5029741;28;20211;-69
2021/12/12 00:33:13;;;;;;;6.97;6.33;;;;;;;3.05;93.44;97481.13;5036962;28;20210;-69
2021/12/12 00:35:41;;;;;;;6.67;6.07;;;;;;;3.09;93.53;97487.03;5037526;28;20219;-69
2021/12/12 00:38:12;;;;;;;6.47;5.97;;;;;;;3.10;93.02;97480.91;5037549;28;20255;-68
2021/12/12 00:40:43;;;;;;;6.27;5.77;;;;;;;3.10;93.32;97483.53;5037440;28;20223;-68
2021/12/12 00:43:14;;;;;;;6.57;5.97;;;;;;;3.10;94.05;97488.75;5037485;28;20257;-68
2021/12/12 00:45:41;;;;;;;6.40;5.90;;;;;;;3.09;93.20;97487.91;5037216;28;20215;-68
2021/12/12 00:48:07;;;;;;;6.57;6.03;;;;;;;3.07;93.65;97481.06;5037330;28;20233;-69
2021/12/12 00:50:37;;;;;;;7.27;6.53;;;;;;;3.12;93.08;97487.75;5037197;28;20226;-69
2021/12/12 00:53:06;;;;;;;6.43;5.93;;;;;;;3.07;93.47;97494.97;5037693;28;20210;-67
2021/12/12 00:55:37;;;;;;;6.57;5.97;;;;;;;3.12;92.86;97505.22;5037270;28;20558;-67
2021/12/12 00:58:04;;;;;;;6.80;6.30;;;;;;;3.15;91.80;97497.22;5037475;28;20203;-68
2021/12/12 01:00:36;;;;;;;6.53;6.00;;;;;;;3.12;92.57;97507.81;5035967;28;20223;-68
2021/12/12 01:03:05;;;;;;;8.60;7.80;;;;;;;3.07;93.70;97515.03;5033980;28;20210;-68
2021/12/12 01:05:32;;;;;;;8.40;7.60;;;;;;;3.10;92.55;97513.13;5046445;28;20214;-68
2021/12/12 01:07:58;;;;;;;6.40;5.80;;;;;;;3.09;92.67;97514.03;5029915;28;20208;-68
2021/12/12 01:10:30;;;;;;;6.20;5.70;;;;;;;3.08;93.63;97514.13;5035945;28;20218;-68
2021/12/12 01:12:58;;;;;;;6.30;5.80;;;;;;;3.13;93.49;97517.34;5039010;28;20210;-68
2021/12/12 01:15:31;;;;;;;6.30;5.80;;;;;;;3.16;92.73;97519.78;5033750;28;20636;-69
2021/12/12 01:18:08;;;;;;;6.20;5.63;;;;;;;3.11;91.96;97527.88;5032031;28;20233;-69
2021/12/12 01:20:38;;;;;;;5.60;5.20;;;;;;;3.09;92.28;97531.47;5039449;28;20230;-71
2021/12/12 01:23:10;;;;;;;6.43;5.83;;;;;;;3.11;93.20;97538.34;5038719;28;20517;-70
2021/12/12 01:25:44;;;;;;;5.53;5.13;;;;;;;3.10;92.93;97530.56;5039050;28;20204;-69
2021/12/12 01:28:11;;;;;;;6.00;5.50;;;;;;;3.15;92.48;97533.81;5038787;28;20202;-69
2021/12/12 01:30:38;;;;;;;5.87;5.30;;;;;;;3.10;93.50;97535.78;5038289;28;20206;-69
2021/12/12 01:33:05;;;;;;;5.83;5.33;;;;;;;3.08;93.26;97537.66;5038265;28;20231;-69
2021/12/12 01:35:33;;;;;;;6.20;5.60;;;;;;;3.09;93.41;97547.16;5029254;28;20522;-70
2021/12/12 01:40:52;;;;;;;6.17;5.67;;;;;;;3.10;92.41;97556.69;5019500;28;20258;-69
2021/12/12 01:43:22;;;;;;;5.83;5.33;;;;;;;3.07;93.85;97549.00;5030227;28;20538;-70
2021/12/12 01:45:52;;;;;;;5.80;5.30;;;;;;;3.06;92.99;97549.91;5037302;28;20207;-70
2021/12/12 01:48:22;;;;;;;5.83;5.00;;;;;;;3.06;93.83;97549.91;5037960;28;20221;-70
2021/12/12 01:50:52;;;;;;;5.80;5.30;;;;;;;3.05;93.62;97554.28;5038325;28;20215;-69
2021/12/12 01:53:22;;;;;;;7.00;5.83;;;;;;;3.10;92.79;97559.31;5038998;28;20203;-69
2021/12/12 01:55:52;;;;;;;6.23;5.73;;;;;;;3.06;93.30;97549.91;5038925;28;20619;-69
2021/12/12 01:58:22;;;;;;;6.07;5.47;;;;;;;3.05;93.22;97550.88;5043251;28;20221;-69
2021/12/12 02:00:52;;;;;;;6.03;5.47;;;;;;;3.08;92.67;97553.31;5043167;28;20233;-69
2021/12/12 02:03:22;;;;;;;6.30;5.70;;;;;;;3.11;92.92;97563.63;5038906;28;20200;-69
2021/12/12 02:05:48;;;;;;;4.93;4.53;;;;;;;3.04;92.79;97562.22;5048591;28;20206;-68
2021/12/12 02:08:18;;;;;;;5.90;5.30;;;;;;;3.08;93.03;97563.78;5035315;28;20534;-69
2021/12/12 02:10:47;;;;;;;6.80;4.93;;;;;;;3.05;93.14;97562.13;5034669;28;20242;-70
2021/12/12 02:13:18;;;;;;;5.73;5.20;;;;;;;3.11;92.40;97566.22;5034998;28;20659;-69
2021/12/12 02:15:45;;;;;;;6.00;5.30;;;;;;;3.15;90.79;97566.00;5028464;28;20199;-69
2021/12/12 02:18:16;;;;;;;5.90;5.30;;;;;;;3.13;91.64;97574.84;5014856;28;20533;-70
2021/12/12 02:21:06;;;;;;;6.40;5.80;;;;;;;3.11;92.12;97580.16;5018582;28;20299;-69
2021/12/12 02:23:47;;;;;;;6.07;5.47;;;;;;;3.00;92.15;97565.00;5032167;28;20661;-70
2021/12/12 02:37:08;;;;;;;5.83;5.13;;;;;;;2.89;92.69;97575.09;5025810;28;20267;-69
2021/12/12 02:39:37;;;;;;;6.30;5.23;;;;;;;2.82;92.32;97575.47;5038033;28;20233;-68
2021/12/12 02:42:06;;;;;;;6.00;5.30;;;;;;;2.84;92.54;97577.06;5037588;28;20247;-69
2021/12/12 02:44:35;;;;;;;6.40;5.70;;;;;;;2.76;92.89;97571.41;5037980;28;20203;-70
2021/12/12 02:47:09;;;;;;;5.43;4.93;;;;;;;2.75;92.30;97569.69;5037967;28;20603;-69
2021/12/12 02:49:40;;;;;;;5.47;4.97;;;;;;;2.71;93.31;97562.91;5038113;28;20213;-69
2021/12/12 02:52:10;;;;;;;7.23;5.10;;;;;;;2.70;92.24;97563.84;5038090;28;20261;-69
2021/12/12 02:54:38;;;;;;;5.67;4.90;;;;;;;2.64;92.58;97564.13;5029787;28;20535;-70
2021/12/12 02:57:05;;;;;;;5.50;5.00;;;;;;;2.53;91.03;97560.31;5017968;28;20698;-69
2021/12/12 02:59:33;;;;;;;5.37;4.90;;;;;;;2.50;91.96;97551.72;5018058;28;20235;-69
2021/12/12 03:02:03;;;;;;;6.00;4.90;;;;;;;2.38;91.58;97561.88;5021040;28;20216;-70
2021/12/12 03:04:29;;;;;;;5.37;4.87;;;;;;;2.40;92.43;97573.09;5025043;28;20282;-69
2021/12/12 03:06:56;;;;;;;5.33;4.83;;;;;;;2.27;92.00;97566.72;5038041;28;20290;-70
2021/12/12 03:09:26;;;;;;;6.40;5.50;;;;;;;2.23;92.00;97573.03;5037969;28;20236;-69
2021/12/12 03:11:57;;;;;;;7.30;5.33;;;;;;;2.14;93.18;97563.00;5037570;28;20322;-68
2021/12/12 03:14:24;;;;;;;6.87;4.97;;;;;;;2.06;92.21;97571.16;5037751;28;20211;-69
2021/12/12 03:16:51;;;;;;;6.73;5.17;;;;;;;1.87;92.67;97572.91;5033856;28;20222;-69
2021/12/12 03:19:20;;;;;;;5.63;5.00;;;;;;;1.86;93.95;97579.88;5036765;28;20200;-70
2021/12/12 03:21:47;;;;;;;6.17;5.10;;;;;;;1.85;93.64;97580.78;5038017;28;20626;-70
2021/12/12 03:24:16;;;;;;;5.80;5.30;;;;;;;1.88;92.16;97579.81;5031770;28;20203;-69
2021/12/12 03:26:44;;;;;;;5.83;4.67;;;;;;;1.79;92.88;97581.06;5020527;28;20203;-69
2021/12/12 03:29:12;;;;;;;4.47;4.13;;;;;;;1.77;92.91;97585.47;5026393;28;20556;-69
2021/12/12 03:31:41;;;;;;;5.60;5.10;;;;;;;1.75;92.46;97596.91;5026757;28;20213;-69
2021/12/12 03:34:10;;;;;;;4.70;4.30;;;;;;;1.73;92.63;97594.38;5037191;28;20626;-68
2021/12/12 03:36:36;;;;;;;5.10;4.60;;;;;;;1.63;92.44;97593.06;5038972;28;20218;-69
2021/12/12 03:39:06;;;;;;;5.37;4.50;;;;;;;1.62;92.77;97596.59;5037731;28;20310;-70
2021/12/12 03:41:36;;;;;;;4.90;4.50;;;;;;;1.62;92.65;97598.34;5040596;28;20249;-70
2021/12/12 03:44:06;;;;;;;5.00;4.50;;;;;;;1.56;92.81;97589.00;5036697;28;20233;-70
2021/12/12 03:46:35;;;;;;;5.27;4.50;;;;;;;1.47;93.23;97598.09;5039043;28;20639;-69
2021/12/12 03:49:02;;;;;;;5.00;4.50;;;;;;;1.46;93.09;97595.53;5029992;28;20218;-69
2021/12/12 03:51:30;;;;;;;4.83;4.33;;;;;;;1.44;93.26;97593.00;5042668;28;20269;-69
2021/12/12 03:53:56;;;;;;;4.27;3.97;;;;;;;1.44;92.63;97598.22;5042407;28;20214;-70
2021/12/12 03:56:24;;;;;;;4.70;4.30;;;;;;;1.42;92.48;97602.63;5049699;28;20218;-69
2021/12/12 03:58:51;;;;;;;4.70;4.30;;;;;;;1.37;92.96;97595.94;5034418;28;20219;-70
2021/12/12 04:01:21;;;;;;;5.10;3.83;;;;;;;1.36;93.41;97597.69;5017275;28;20240;-69
2021/12/12 04:03:50;;;;;;;5.87;4.40;;;;;;;1.33;93.40;97589.16;5033531;28;20225;-70
2021/12/12 04:06:18;;;;;;;4.20;3.77;;;;;;;1.30;93.53;97594.50;5052573;28;20214;-69
2021/12/12 04:08:48;;;;;;;4.07;3.77;;;;;;;1.37;92.50;97595.94;5039500;28;20232;-68
2021/12/12 04:11:18;;;;;;;5.20;3.87;;;;;;;1.24;92.93;97598.19;5036479;28;20206;-69
2021/12/12 04:13:46;;;;;;;4.57;4.20;;;;;;;1.21;93.20;97592.25;5036653;28;20539;-70
2021/12/12 04:16:13;;;;;;;4.43;4.13;;;;;;;1.20;93.45;97594.03;5036035;28;20205;-70
2021/12/12 04:18:40;;;;;;;4.50;3.57;;;;;;;1.17;93.93;97582.88;5030212;28;20215;-70
2021/12/12 04:21:08;;;;;;;4.13;3.27;;;;;;;1.18;93.43;97576.75;5036244;28;20225;-69
2021/12/12 04:23:35;;;;;;;3.67;3.37;;;;;;;1.15;92.46;97577.72;5035625;28;20300;-70
2021/12/12 04:26:14;;;;;;;3.73;3.47;;;;;;;1.16;93.01;97582.03;5031155;28;20532;-70
2021/12/12 04:28:41;;;;;;;5.67;3.60;;;;;;;1.12;93.78;97588.28;5020733;28;20210;-69
2021/12/12 04:31:08;;;;;;;3.87;3.43;;;;;;;1.10;93.69;97589.25;5020562;28;20210;-70
2021/12/12 04:33:34;;;;;;;3.77;3.47;;;;;;;1.11;93.85;97589.19;5035886;28;20210;-68
2021/12/12 04:36:01;;;;;;;4.50;3.20;;;;;;;1.11;93.44;97583.97;5036077;28;20222;-69
2021/12/12 04:38:29;;;;;;;4.00;3.23;;;;;;;1.03;94.28;97585.22;5035969;28;20215;-69
2021/12/12 04:40:55;;;;;;;3.57;3.03;;;;;;;0.99;94.46;97584.47;5035546;28;20249;-68
2021/12/12 04:43:22;;;;;;;3.20;2.93;;;;;;;1.02;93.43;97589.56;5027462;28;20201;-69
2021/12/12 04:46:04;;;;;;;3.27;3.07;;;;;;;0.99;94.37;97595.72;5036662;28;20496;-70
2021/12/12 04:51:27;;;;;;;4.63;3.40;;;;;;;0.95;93.76;97596.78;5030326;28;20203;-70
2021/12/12 04:54:01;;;;;;;4.30;3.30;;;;;;;1.01;93.27;97598.28;5020529;28;20203;-70
2021/12/12 04:56:31;;;;;;;3.50;3.20;;;;;;;0.98;93.39;97599.25;5036612;28;20189;-69
2021/12/12 04:59:04;;;;;;;3.53;3.23;;;;;;;0.97;93.76;97596.69;5037759;28;20201;-70
2021/12/12 05:01:35;;;;;;;3.33;3.13;;;;;;;0.92;93.29;97599.47;5047170;28;20202;-69
2021/12/12 05:04:08;;;;;;;3.90;3.60;;;;;;;0.87;94.02;97603.19;5055283;28;20219;-70
2021/12/12 05:06:39;;;;;;;4.00;3.70;;;;;;;0.92;94.34;97604.69;5051302;28;20190;-69
2021/12/12 05:09:09;;;;;;;3.73;3.50;;;;;;;0.84;94.80;97613.72;5036549;28;20217;-69
2021/12/12 05:11:40;;;;;;;3.97;3.60;;;;;;;0.79;94.61;97619.09;5036211;28;20204;-69
2021/12/12 05:14:11;;;;;;;3.93;3.63;;;;;;;0.77;95.27;97615.72;5035964;28;20204;-69
2021/12/12 05:16:40;;;;;;;3.70;3.40;;;;;;;0.83;94.85;97619.84;5035787;28;20205;-69
2021/12/12 05:19:11;;;;;;;4.77;3.80;;;;;;;0.83;94.84;97615.47;5035665;28;20199;-68
2021/12/12 05:21:41;;;;;;;3.87;3.53;;;;;;;0.81;95.11;97622.50;5035156;28;20216;-69
2021/12/12 05:24:10;;;;;;;4.30;3.90;;;;;;;0.78;95.22;97621.78;5035563;28;20210;-69
2021/12/12 05:26:39;;;;;;;4.10;3.80;;;;;;;0.81;95.42;97630.31;5034850;28;20656;-69
2021/12/12 05:29:09;;;;;;;4.43;4.03;;;;;;;0.83;94.46;97631.09;5025860;28;20209;-69
2021/12/12 05:31:37;;;;;;;4.10;3.70;;;;;;;0.82;94.17;97629.41;5033861;28;20203;-69
2021/12/12 05:34:04;;;;;;;4.70;4.00;;;;;;;0.77;93.90;97633.94;5035524;28;20222;-69
2021/12/12 05:36:34;;;;;;;6.47;3.57;;;;;;;0.75;94.79;97634.88;5036661;28;20213;-69
2021/12/12 05:39:02;;;;;;;3.93;3.63;;;;;;;0.74;94.82;97630.63;5037561;28;20296;-68
2021/12/12 05:41:30;;;;;;;4.30;3.90;;;;;;;0.73;94.96;97637.56;5036541;28;20260;-69
2021/12/12 05:43:57;;;;;;;4.40;3.97;;;;;;;0.64;94.77;97640.50;5035414;28;20214;-70
2021/12/12 05:46:24;;;;;;;4.50;4.20;;;;;;;0.58;94.61;97640.75;5036745;28;20359;-69
2021/12/12 05:48:53;;;;;;;4.87;4.40;;;;;;;0.59;96.10;97642.47;5036639;28;20297;-70
2021/12/12 05:51:20;;;;;;;5.27;4.80;;;;;;;0.67;94.26;97639.56;5037577;28;20206;-69
2021/12/12 05:53:50;;;;;;;5.33;4.83;;;;;;;0.62;94.83;97647.53;5037447;28;20205;-69
2021/12/12 05:56:17;;;;;;;4.87;4.43;;;;;;;0.62;95.01;97663.16;5036679;28;20213;-69
2021/12/12 05:58:44;;;;;;;5.47;4.97;;;;;;;0.59;94.60;97668.50;5034276;28;20205;-69
2021/12/12 06:01:12;;;;;;;5.40;5.00;;;;;;;0.58;95.21;97669.38;5025682;28;20230;-69
2021/12/12 06:03:42;;;;;;;6.27;5.23;;;;;;;0.58;95.21;97671.13;5015093;28;20208;-69
2021/12/12 06:06:11;;;;;;;5.73;5.20;;;;;;;0.54;94.09;97678.22;5039190;28;20214;-70
2021/12/12 06:08:40;;;;;;;6.47;5.50;;;;;;;0.60;95.00;97675.41;5037910;28;20545;-70
2021/12/12 06:11:09;;;;;;;6.17;5.37;;;;;;;0.49;95.41;97675.78;5033739;28;20220;-70
2021/12/12 06:13:37;;;;;;;6.70;6.13;;;;;;;0.60;93.93;97675.41;5040124;28;20540;-69
2021/12/12 06:16:05;;;;;;;6.30;5.70;;;;;;;0.55;94.03;97682.50;5038663;28;20220;-69
2021/12/12 06:18:33;;;;;;;6.60;5.90;;;;;;;0.56;94.15;97679.00;5038574;28;20208;-70
2021/12/12 06:21:00;;;;;;;6.67;6.07;;;;;;;0.45;94.00;97670.75;5038354;28;20237;-69
2021/12/12 06:23:28;;;;;;;6.30;5.70;;;;;;;0.45;95.53;97675.97;5038608;28;20220;-69
2021/12/12 06:25:54;;;;;;;6.83;6.13;;;;;;;0.52;93.99;97679.19;5039079;28;20212;-69
2021/12/12 06:28:24;;;;;;;6.23;5.63;;;;;;;0.48;94.78;97681.03;5038606;28;20209;-69
2021/12/12 06:30:51;;;;;;;6.67;6.00;;;;;;;0.44;94.36;97682.06;5030431;28;20298;-70
2021/12/12 06:33:19;;;;;;;6.73;6.13;;;;;;;0.39;94.98;97686.59;5038250;28;20221;-69
2021/12/12 06:35:46;;;;;;;6.17;5.57;;;;;;;0.33;95.92;97692.84;5038370;28;20219;-70
2021/12/12 06:38:14;;;;;;;6.37;5.87;;;;;;;0.34;95.85;97698.91;5038003;28;20692;-69
2021/12/12 06:40:42;;;;;;;7.60;6.20;;;;;;;0.38;96.22;97700.50;5025180;28;20234;-69
2021/12/12 06:43:10;;;;;;;6.87;6.00;;;;;;;0.37;95.90;97696.19;5025572;28;20651;-69
2021/12/12 06:45:38;;;;;;;7.00;6.30;;;;;;;0.39;95.52;97702.22;5038076;28;20219;-69
2021/12/12 06:48:05;;;;;;;6.80;6.20;;;;;;;0.39;95.73;97702.22;5038281;28;20216;-69
2021/12/12 06:50:35;;;;;;;6.90;6.20;;;;;;;0.27;95.80;97698.28;5037939;28;20206;-69
2021/12/12 06:53:02;;;;;;;6.47;5.87;;;;;;;0.30;96.46;97707.72;5029513;28;20204;-68
2021/12/12 06:55:30;;;;;;;6.47;5.97;;;;;;;0.37;95.72;97704.00;5017940;28;20624;-69
2021/12/12 06:57:57;;;;;;;8.07;6.30;;;;;;;0.34;96.78;97704.13;5018154;28;20239;-69
2021/12/12 07:00:25;;;;;;;6.60;5.90;;;;;;;0.29;96.65;97706.88;5031182;28;20296;-70
2021/12/12 07:02:52;;;;;;;7.17;6.47;;;;;;;0.26;95.51;97701.78;5026890;28;20209;-68
2021/12/12 07:05:21;;;;;;;7.17;6.57;;;;;;;0.20;96.26;97712.41;5045781;28;20206;-69
2021/12/12 07:07:50;;;;;;;6.60;6.00;;;;;;;0.29;95.93;97719.88;5030465;28;20224;-69
2021/12/12 07:10:19;;;;;;;7.83;6.80;;;;;;;0.34;96.88;97712.78;5031205;28;20213;-68
2021/12/12 07:12:48;;;;;;;7.00;6.40;;;;;;;0.36;96.00;97718.75;5018560;28;20214;-70
2021/12/12 07:15:16;;;;;;;7.20;6.50;;;;;;;0.40;95.16;97724.69;5017851;28;20300;-69
2021/12/12 07:17:43;;;;;;;7.80;7.07;;;;;;;0.34;95.25;97715.38;5022924;28;20211;-69
2021/12/12 07:20:11;;;;;;;7.07;6.43;;;;;;;0.36;94.98;97723.09;5035981;28;20223;-69
2021/12/12 07:22:38;;;;;;;7.00;6.40;;;;;;;0.39;94.64;97729.03;5026763;28;20237;-69
2021/12/12 07:25:08;;;;;;;7.67;6.90;;;;;;;0.31;94.12;97730.25;5017398;28;20208;-69
2021/12/12 07:27:35;;;;;;;8.03;7.23;;;;;;;0.35;94.88;97737.91;5017659;28;20209;-70
2021/12/12 07:30:02;;;;;;;8.03;7.27;;;;;;;0.40;95.11;97737.72;5018063;28;20208;-69
2021/12/12 07:32:30;;;;;;;7.73;6.67;;;;;;;0.38;95.75;97742.13;5033194;28;20635;-70
2021/12/12 07:34:56;;;;;;;7.27;6.63;;;;;;;0.45;96.68;97743.59;5019190;28;20221;-69
2021/12/12 07:37:23;;;;;;;8.27;7.47;;;;;;;0.50;96.10;97742.53;5032335;28;20196;-70
2021/12/12 07:39:50;;;;;;;7.93;7.13;;;;;;;0.57;95.35;97747.53;5037516;28;20213;-69
2021/12/12 07:42:18;;;;;;;8.63;7.47;;;;;;;0.62;95.19;97746.44;5037190;28;20650;-69
2021/12/12 07:44:46;;;;;;;7.90;7.10;;;;;;;0.59;95.09;97749.16;5024696;28;20234;-69
2021/12/12 07:47:15;;;;;;;8.87;7.97;;;;;;;0.64;94.34;97749.00;5024652;28;20216;-70
2021/12/12 07:49:44;;;;;;;8.83;7.70;;;;;;;0.63;94.49;97753.38;5037935;28;20275;-69
2021/12/12 07:52:15;;;;;;;8.80;7.90;;;;;;;0.60;95.63;97753.47;5036907;28;20625;-69
2021/12/12 07:54:42;;;;;;;8.93;8.03;;;;;;;0.59;95.47;97751.78;5040368;28;20195;-69
2021/12/12 07:57:09;;;;;;;10.10;8.83;;;;;;;0.66;96.00;97757.59;5038416;28;20204;-70
2021/12/12 07:59:38;;;;;;;10.50;8.87;;;;;;;0.68;94.80;97748.81;5037513;28;20236;-70
2021/12/12 08:02:06;;;;;;;13.37;8.90;;;;;;;0.74;94.86;97746.00;5040839;28;20233;-69
2021/12/12 08:04:37;;;;;;;10.83;8.57;;;;;;;0.70;95.40;97754.00;5043409;28;20216;-70
2021/12/12 08:07:04;;;;;;;12.23;9.43;;;;;;;0.80;95.57;97758.81;5042202;28;20220;-70
2021/12/12 08:09:31;;;;;;;11.70;8.90;;;;;;;0.83;95.46;97763.88;5039415;28;20578;-70
2021/12/12 08:11:58;;;;;;;16.10;10.73;;;;;;;0.89;94.65;97771.47;5038120;28;20232;-69
2021/12/12 08:14:26;;;;;;;15.27;11.33;;;;;;;0.86;95.23;97771.59;5037493;28;20228;-69
2021/12/12 08:16:58;;;;;;;15.63;12.37;;;;;;;0.97;95.55;97766.84;5033678;28;20210;-69
2021/12/12 08:19:26;;;;;;;16.63;12.27;;;;;;;1.08;94.69;97770.78;5048494;28;20208;-69
2021/12/12 08:21:55;;;;;;;18.83;12.63;;;;;;;0.91;95.27;97769.69;5042310;28;20240;-70
2021/12/12 08:24:22;;;;;;;16.73;12.03;;;;;;;1.03;95.66;97759.72;5039248;28;20210;-70
2021/12/12 08:26:48;;;;;;;18.80;12.83;;;;;;;1.09;95.36;97760.31;5037154;28;20209;-70
2021/12/12 08:29:16;;;;;;;18.07;13.40;;;;;;;1.17;95.54;97765.25;5037308;28;20213;-69
2021/12/12 08:31:43;;;;;;;19.30;13.67;;;;;;;1.15;95.10;97764.44;5036331;28;20219;-69
2021/12/12 08:34:11;;;;;;;19.27;13.50;;;;;;;1.20;95.90;97765.13;5043747;28;20227;-69
2021/12/12 08:36:40;;;;;;;20.27;13.40;;;;;;;1.15;95.73;97774.84;5039634;28;20217;-69
2021/12/12 08:39:07;;;;;;;19.93;14.20;;;;;;;1.11;95.83;97776.72;5040850;28;20210;-70
2021/12/12 08:41:35;;;;;;;22.60;14.73;;;;;;;1.18;95.25;97790.38;5024272;28;20232;-69
2021/12/12 08:44:03;;;;;;;20.20;13.73;;;;;;;1.24;95.97;97787.56;5034869;28;20206;-68
2021/12/12 08:46:31;;;;;;;21.50;14.27;;;;;;;1.33;96.26;97787.19;5017022;28;20230;-70
2021/12/12 08:49:01;;;;;;;20.97;14.40;;;;;;;1.42;93.87;97789.44;5016670;28;20251;-69
2021/12/12 08:51:34;;;;;;;20.67;14.77;;;;;;;1.48;94.26;97799.63;5029207;28;20656;-70
2021/12/12 08:54:12;;;;;;;20.93;14.43;;;;;;;1.52;94.40;97799.44;5036549;28;20304;-70
2021/12/12 08:56:44;;;;;;;19.60;14.30;;;;;;;1.67;94.71;97791.91;5038228;28;20209;-70
2021/12/12 08:59:11;;;;;;;19.70;14.47;;;;;;;1.70;95.28;97791.81;5040395;28;20202;-70
2021/12/12 09:01:39;;;;;;;18.27;14.10;;;;;;;1.94;94.85;97796.91;5043419;28;20233;-70
2021/12/12 09:04:08;;;;;;;16.20;14.00;;;;;;;1.87;93.55;97786.78;5036806;28;20225;-69
2021/12/12 09:06:39;;;;;;;19.70;14.70;;;;;;;2.03;92.45;97795.66;5042388;28;20321;-69
2021/12/12 09:09:11;;;;;;;17.20;14.03;;;;;;;2.36;91.30;97798.63;5037531;28;20207;-70
2021/12/12 09:11:44;;;;;;;17.93;13.70;;;;;;;2.45;90.97;97812.13;5028325;28;20596;-69
2021/12/12 09:14:14;;;;;;;16.97;13.83;;;;;;;2.38;91.37;97812.47;5032261;28;20206;-70
2021/12/12 09:16:46;;;;;;;20.47;14.77;;;;;;;2.31;90.57;97806.66;5036158;28;20186;-69
2021/12/12 09:19:16;;;;;;;15.60;13.23;;;;;;;2.37;92.54;97816.00;5040840;28;20540;-69
2021/12/12 09:21:50;;;;;;;18.60;14.60;;;;;;;2.30;92.11;97825.81;5032906;28;20245;-68
2021/12/12 09:24:25;;;;;;;18.33;14.27;;;;;;;2.31;93.74;97834.50;5027053;28;20208;-69
2021/12/12 09:26:54;;;;;;;19.30;13.43;;;;;;;2.45;91.61;97825.19;5035820;28;20695;-69
2021/12/12 09:29:26;;;;;;;19.30;13.50;;;;;;;2.39;91.53;97814.16;5023466;28;20213;-69
2021/12/12 09:31:56;;;;;;;17.53;13.93;;;;;;;2.39;92.81;97819.38;5026975;28;20208;-70
2021/12/12 09:34:29;;;;;;;18.33;14.20;;;;;;;2.46;90.96;97818.22;5035746;28;20209;-69
2021/12/12 09:37:00;;;;;;;18.03;13.87;;;;;;;2.37;91.70;97811.59;5035363;28;20210;-69
2021/12/12 09:39:28;;;;;;;16.70;13.03;;;;;;;2.48;90.98;97811.16;5035137;28;20210;-70
2021/12/12 09:42:05;;;;;;;16.23;12.70;;;;;;;2.35;92.04;97815.19;5036756;28;20235;-68
2021/12/12 09:44:44;;;;;;;16.87;13.33;;;;;;;2.54;91.75;97823.13;5051403;28;20207;-69
2021/12/12 09:47:28;;;;;;;16.13;12.93;;;;;;;2.92;90.37;97823.16;5038570;28;20211;-69
2021/12/12 09:53:13;;;;;;;15.90;12.37;;;;;;;3.22;87.91;97822.72;5051614;28;20231;-69
2021/12/12 09:55:46;;;;;;;13.13;11.73;;;;;;;3.29;88.73;97816.28;5044402;28;20543;-68
2021/12/12 09:58:16;;;;;;;13.90;12.00;;;;;;;3.28;88.91;97811.97;5040776;28;20207;-69
2021/12/12 10:00:45;;;;;;;14.47;12.27;;;;;;;3.20;89.34;97803.63;5039129;28;20221;-69
2021/12/12 10:03:21;;;;;;;15.20;13.17;;;;;;;3.45;89.60;97799.81;5039254;28;20235;-69
2021/12/12 10:06:00;;;;;;;16.27;13.00;;;;;;;3.48;86.87;97801.44;5047081;28;20210;-69
2021/12/12 10:08:37;;;;;;;16.90;13.03;;;;;;;3.36;87.79;97792.41;5028514;28;20211;-69
2021/12/12 10:11:07;;;;;;;15.20;12.57;;;;;;;3.36;87.80;97788.94;5039655;28;20207;-69
2021/12/12 10:13:39;;;;;;;19.03;14.43;;;;;;;3.24;87.88;97790.34;5039386;28;20208;-69
2021/12/12 10:16:09;;;;;;;13.20;11.70;;;;;;;3.40;89.26;97786.09;5039510;28;20214;-69
2021/12/12 10:18:45;;;;;;;15.03;12.67;;;;;;;3.49;88.80;97779.59;5038977;28;20218;-69
2021/12/12 10:21:14;;;;;;;15.23;12.83;;;;;;;3.52;88.30;97774.22;5038695;28;20203;-69
2021/12/12 10:23:52;;;;;;;15.43;12.63;;;;;;;3.51;87.81;97788.19;5031547;28;20232;-69
2021/12/12 10:26:25;;;;;;;15.17;12.80;;;;;;;3.58;87.71;97784.38;5035651;28;20519;-69
2021/12/12 10:28:54;;;;;;;16.17;12.53;;;;;;;3.72;87.09;97779.34;5043737;28;20219;-69
2021/12/12 10:31:24;;;;;;;14.40;12.90;;;;;;;3.77;87.02;97782.59;5030470;28;20206;-69
2021/12/12 10:33:54;;;;;;;14.13;12.63;;;;;;;3.86;86.13;97783.94;5038879;28;20200;-69
2021/12/12 10:36:23;;;;;;;14.20;12.73;;;;;;;3.92;86.27;97784.47;5038762;28;20280;-70
2021/12/12 10:38:55;;;;;;;14.57;12.73;;;;;;;4.11;85.54;97781.78;5038900;28;20238;-69
2021/12/12 10:41:26;;;;;;;13.73;12.33;;;;;;;4.15;87.41;97780.72;5038359;28;20258;-69
2021/12/12 10:43:57;;;;;;;13.40;12.10;;;;;;;4.17;86.42;97776.28;5045915;28;20199;-69
2021/12/12 10:46:29;;;;;;;14.27;12.77;;;;;;;4.16;85.27;97777.19;5025267;28;20529;-69
2021/12/12 10:48:58;;;;;;;14.20;12.77;;;;;;;4.14;85.52;97779.03;5029261;28;20243;-70
2021/12/12 10:51:26;;;;;;;13.50;11.90;;;;;;;4.17;85.09;97772.81;5031539;28;20208;-69
2021/12/12 10:54:03;;;;;;;13.00;11.67;;;;;;;4.21;85.16;97771.72;5037925;28;20323;-69
2021/12/12 10:56:34;;;;;;;12.80;11.53;;;;;;;4.32;85.27;97766.81;5038389;28;20208;-69
2021/12/12 10:59:04;;;;;;;13.17;11.53;;;;;;;4.32;84.97;97766.81;5038378;28;20207;-69
2021/12/12 11:01:33;;;;;;;14.00;12.50;;;;;;;4.29;83.52;97767.78;5038390;28;20218;-69
2021/12/12 11:04:05;;;;;;;12.30;11.10;;;;;;;4.47;84.76;97763.38;5037670;28;20631;-68
2021/12/12 11:06:33;;;;;;;12.57;11.37;;;;;;;4.44;82.27;97766.16;5030153;28;20222;-70
2021/12/12 11:09:05;;;;;;;12.70;11.40;;;;;;;4.63;82.51;97759.06;5038033;28;20314;-72
2021/12/12 11:11:38;;;;;;;12.80;11.50;;;;;;;4.80;83.74;97759.03;5037999;28;20751;-70
2021/12/12 11:14:08;;;;;;;12.83;11.53;;;;;;;4.75;81.93;97762.81;5037580;28;20204;-69
2021/12/12 11:16:38;;;;;;;12.20;11.00;;;;;;;4.76;82.09;97764.50;5037677;28;20196;-69
2021/12/12 11:19:09;;;;;;;11.63;10.43;;;;;;;4.86;82.57;97756.09;5038142;28;20202;-68
2021/12/12 11:21:39;;;;;;;12.47;11.20;;;;;;;4.91;82.17;97759.31;5024798;28;20219;-68
2021/12/12 11:24:11;;;;;;;12.30;11.10;;;;;;;4.88;82.66;97754.25;5038033;28;20203;-71
2021/12/12 11:26:41;;;;;;;12.50;10.97;;;;;;;4.96;83.22;97759.91;5038156;28;21087;-69
2021/12/12 11:29:11;;;;;;;11.53;10.50;;;;;;;5.06;82.68;97762.06;5028437;28;20307;-68
2021/12/12 11:31:44;;;;;;;12.33;11.07;;;;;;;5.18;82.41;97759.59;5035510;28;20196;-69
2021/12/12 11:34:12;;;;;;;12.30;11.13;;;;;;;5.25;81.29;97757.50;5038137;28;20242;-69
2021/12/12 11:36:47;;;;;;;13.53;12.13;;;;;;;5.13;79.67;97755.56;5037212;28;20218;-68
2021/12/12 11:39:19;;;;;;;11.20;10.10;;;;;;;5.14;79.46;97754.59;5037711;28;20214;-70
2021/12/12 11:41:56;;;;;;;10.37;9.27;;;;;;;5.28;79.28;97746.88;5029193;28;20267;-71
2021/12/12 11:44:28;;;;;;;8.67;7.77;;;;;;;5.40;79.02;97754.03;5037570;28;20206;-70
2021/12/12 11:47:01;;;;;;;8.57;7.77;;;;;;;5.41;76.16;97747.88;5028690;28;20629;-70
2021/12/12 11:49:31;;;;;;;7.53;6.87;;;;;;;5.37;76.48;97747.19;5036462;28;20211;-69
2021/12/12 11:52:02;;;;;;;7.60;6.90;;;;;;;5.36;76.93;97747.25;5036871;28;20204;-69
2021/12/12 11:54:35;;;;;;;8.00;7.30;;;;;;;5.33;77.02;97737.78;5023950;28;20211;-70
2021/12/12 11:57:06;;;;;;;7.33;6.67;;;;;;;5.25;76.61;97737.38;5037186;28;20218;-69
2021/12/12 11:59:41;;;;;;;6.73;6.13;;;;;;;5.30;76.92;97737.13;5037306;28;20208;-70
2021/12/12 12:02:24;;;;;;;5.90;5.40;;;;;;;5.24;75.41;97732.22;5036897;28;20545;-70
2021/12/12 12:05:04;;;;;;;6.03;5.43;;;;;;;5.15;75.17;97730.94;5048754;28;20210;-69
2021/12/12 12:07:41;;;;;;;5.87;5.37;;;;;;;5.06;74.89;97735.84;5044166;28;20200;-71